ADDS METAR Data INFO
IDs: Format: Raw Decoded Include TAF

Data at: 0203 UTC 26 Apr 2017

EGBB 260150Z 32008KT 9999 BKN021 OVC027 03/01 Q1017

No METAR found for EGBE

No METAR found for EGBJ

EGVN 260150Z 34009KT 9999 FEW030 02/M00 Q1016 NOSIG

EGTK 252120Z 34006KT CAVOK 01/01 Q1016

No METAR found for EGWC


Page loaded:  02:03 UTC  |   07:03 PM Pacific  |   08:03 PM Mountain  |   09:03 PM Central  |   10:03 PM Eastern

 

ADVISORIES

FORECASTS

FORECASTS

OBSERVATIONS

USER TOOLS

ABOUT US